Time;durP1;ratioP1;P1;durP2;ratioP2;P2;SDS_P1;SDS_P2;PMS_P1;PMS_P2;Temp;Humidity;BMP_temperature;BMP_pressure;BME280_temperature;BME280_humidity;BME280_pressure;Samples;Min_cycle;Max_cycle;Signal;HPM_P1;HPM_P2
2023/08/27 00:01:11;;;;;;;35.78;17.77;;;;;;;;;;5000324;28;20319;-80
2023/08/27 00:03:38;;;;;;;71.38;28.13;;;;;;;;;;4996053;28;20301;-78
2023/08/27 00:06:05;;;;;;;57.28;35.92;;;;;;;;;;5007973;28;20239;-78
2023/08/27 00:08:32;;;;;;;76.30;27.20;;;;;;;;;;4981625;28;20319;-79
2023/08/27 00:10:59;;;;;;;37.53;23.92;;;;;;;;;;4990429;28;20229;-79
2023/08/27 00:13:26;;;;;;;45.47;37.95;;;;;;;;;;5003893;28;20240;-76
2023/08/27 00:15:53;;;;;;;47.15;21.67;;;;;;;;;;5004637;28;20322;-80
2023/08/27 00:18:20;;;;;;;58.97;38.47;;;;;;;;;;5010241;28;20243;-79
2023/08/27 00:20:46;;;;;;;75.90;69.55;;;;;;;;;;5008527;28;20244;-79
2023/08/27 00:23:14;;;;;;;59.80;53.70;;;;;;;;;;5012417;28;20371;-79
2023/08/27 00:25:42;;;;;;;83.63;63.08;;;;;;;;;;4971899;28;20282;-79
2023/08/27 00:28:11;;;;;;;64.65;57.90;;;;;;;;;;5008459;28;20606;-79
2023/08/27 00:30:37;;;;;;;99.40;47.85;;;;;;;;;;4999740;28;20258;-78
2023/08/27 00:33:04;;;;;;;69.97;64.15;;;;;;;;;;5003424;28;20231;-79
2023/08/27 00:35:31;;;;;;;86.15;76.70;;;;;;;;;;5004282;28;20246;-79
2023/08/27 00:37:57;;;;;;;109.07;101.55;;;;;;;;;;4984252;28;20242;-78
2023/08/27 00:40:27;;;;;;;81.05;74.57;;;;;;;;;;5009091;28;20332;-80
2023/08/27 00:42:53;;;;;;;94.80;87.80;;;;;;;;;;5004779;28;20235;-78
2023/08/27 00:45:20;;;;;;;96.53;88.75;;;;;;;;;;4999225;28;20675;-78
2023/08/27 00:47:46;;;;;;;108.18;100.63;;;;;;;;;;5000206;28;20275;-80
2023/08/27 00:50:14;;;;;;;91.78;85.22;;;;;;;;;;4998778;28;20706;-80
2023/08/27 00:52:41;;;;;;;81.68;59.38;;;;;;;;;;4980408;28;20231;-79
2023/08/27 00:55:08;;;;;;;52.00;34.13;;;;;;;;;;5007921;28;20228;-77
2023/08/27 00:57:36;;;;;;;67.53;36.08;;;;;;;;;;5013493;28;20235;-77
2023/08/27 01:00:03;;;;;;;54.92;50.33;;;;;;;;;;4996249;28;20290;-79
2023/08/27 01:02:29;;;;;;;61.80;47.53;;;;;;;;;;5005844;28;20234;-79
2023/08/27 01:04:56;;;;;;;57.60;52.08;;;;;;;;;;5011857;28;20251;-79
2023/08/27 01:07:36;;;;;;;58.92;52.67;;;;;;;;;;5007514;28;20236;-79
2023/08/27 01:10:21;;;;;;;64.03;57.30;;;;;;;;;;5006002;28;20254;-78
2023/08/27 01:13:04;;;;;;;102.32;62.65;;;;;;;;;;5000992;28;20235;-77
2023/08/27 01:15:32;;;;;;;75.95;38.60;;;;;;;;;;4999032;28;20231;-79
2023/08/27 01:17:59;;;;;;;94.20;86.78;;;;;;;;;;5001051;28;20223;-78
2023/08/27 01:20:27;;;;;;;64.50;58.63;;;;;;;;;;4986886;28;20243;-78
2023/08/27 01:22:54;;;;;;;48.08;42.83;;;;;;;;;;4984267;28;20239;-80
2023/08/27 01:25:23;;;;;;;53.53;48.42;;;;;;;;;;5007282;28;20238;-80
2023/08/27 01:27:55;;;;;;;44.67;21.20;;;;;;;;;;4996236;28;20223;-79
2023/08/27 01:30:29;;;;;;;49.88;18.13;;;;;;;;;;5000945;28;20236;-79
2023/08/27 01:33:00;;;;;;;51.63;43.30;;;;;;;;;;4967308;28;20229;-79
2023/08/27 01:35:28;;;;;;;51.78;38.28;;;;;;;;;;4998859;28;20232;-79
2023/08/27 01:37:55;;;;;;;55.17;25.02;;;;;;;;;;4991401;28;20238;-78
2023/08/27 01:40:21;;;;;;;72.60;67.20;;;;;;;;;;4997032;28;20250;-81
2023/08/27 01:42:48;;;;;;;72.35;66.65;;;;;;;;;;4993848;28;20235;-80
2023/08/27 01:45:15;;;;;;;65.30;59.65;;;;;;;;;;4997984;28;20714;-79
2023/08/27 01:47:41;;;;;;;71.45;44.50;;;;;;;;;;4988932;28;20227;-79
2023/08/27 01:50:08;;;;;;;64.35;58.28;;;;;;;;;;5002250;28;20241;-79
2023/08/27 01:52:35;;;;;;;75.53;61.97;;;;;;;;;;4992321;28;20223;-79
2023/08/27 01:55:04;;;;;;;70.18;63.67;;;;;;;;;;4982539;28;20234;-78
2023/08/27 01:57:30;;;;;;;80.78;69.45;;;;;;;;;;4992423;28;20315;-79
2023/08/27 01:59:57;;;;;;;54.72;49.53;;;;;;;;;;5003754;28;20250;-78
2023/08/27 02:02:24;;;;;;;79.75;73.15;;;;;;;;;;5007721;28;20277;-80
2023/08/27 02:04:51;;;;;;;61.28;55.33;;;;;;;;;;4999307;28;20239;-77
2023/08/27 02:07:17;;;;;;;74.72;67.72;;;;;;;;;;4996887;28;20243;-79
2023/08/27 02:09:44;;;;;;;94.15;84.18;;;;;;;;;;4994005;28;20235;-78
2023/08/27 02:12:10;;;;;;;132.95;124.22;;;;;;;;;;4997390;28;20242;-79
2023/08/27 02:14:38;;;;;;;104.50;65.03;;;;;;;;;;4986173;28;20236;-79
2023/08/27 02:17:05;;;;;;;59.17;53.15;;;;;;;;;;4985238;28;20236;-79
2023/08/27 02:19:31;;;;;;;93.25;53.75;;;;;;;;;;4975448;28;20250;-79
2023/08/27 02:21:58;;;;;;;86.70;80.60;;;;;;;;;;5006624;28;20235;-80
2023/08/27 02:24:24;;;;;;;114.78;105.65;;;;;;;;;;4987072;28;20250;-80
2023/08/27 02:26:51;;;;;;;107.00;97.05;;;;;;;;;;4998455;28;20243;-79
2023/08/27 02:29:17;;;;;;;92.00;85.07;;;;;;;;;;5003828;28;20247;-77
2023/08/27 02:31:44;;;;;;;118.97;107.88;;;;;;;;;;4996882;28;20224;-79
2023/08/27 02:34:11;;;;;;;68.70;62.25;;;;;;;;;;5007731;28;20236;-80
2023/08/27 02:36:38;;;;;;;120.85;110.15;;;;;;;;;;4982390;28;20252;-78
2023/08/27 02:39:04;;;;;;;128.65;120.50;;;;;;;;;;5007646;28;20243;-79
2023/08/27 02:41:31;;;;;;;171.25;157.13;;;;;;;;;;4990116;28;20232;-80
2023/08/27 02:43:57;;;;;;;113.40;104.72;;;;;;;;;;4998098;28;20292;-79
2023/08/27 02:46:24;;;;;;;228.93;215.95;;;;;;;;;;4999712;28;20236;-78
2023/08/27 02:48:51;;;;;;;70.70;64.55;;;;;;;;;;4975664;28;20295;-80
2023/08/27 02:51:17;;;;;;;136.20;127.57;;;;;;;;;;5001297;28;20224;-79
2023/08/27 02:53:44;;;;;;;194.13;180.70;;;;;;;;;;4994903;28;20250;-80
2023/08/27 02:56:11;;;;;;;160.48;149.82;;;;;;;;;;4972486;28;20240;-79
2023/08/27 02:58:37;;;;;;;128.30;115.95;;;;;;;;;;4989269;28;20239;-79
2023/08/27 03:01:04;;;;;;;39.58;9.82;;;;;;;;;;4998996;28;20297;-79
2023/08/27 03:03:30;;;;;;;61.20;17.27;;;;;;;;;;4985415;28;20224;-78
2023/08/27 03:05:57;;;;;;;96.88;89.78;;;;;;;;;;5005145;28;20226;-79
2023/08/27 03:08:24;;;;;;;189.43;176.23;;;;;;;;;;4994934;28;20240;-80
2023/08/27 03:10:51;;;;;;;241.88;229.75;;;;;;;;;;4992132;28;20243;-79
2023/08/27 03:13:17;;;;;;;179.57;168.40;;;;;;;;;;4996911;28;20224;-79
2023/08/27 03:15:44;;;;;;;196.07;181.38;;;;;;;;;;4980258;28;20224;-79
2023/08/27 03:18:11;;;;;;;141.57;131.25;;;;;;;;;;5005108;28;20219;-78
2023/08/27 03:20:37;;;;;;;95.32;77.80;;;;;;;;;;4926112;28;20382;-80
2023/08/27 03:23:04;;;;;;;49.72;40.92;;;;;;;;;;4997757;28;20223;-79
2023/08/27 03:25:32;;;;;;;79.57;67.65;;;;;;;;;;4989894;28;20760;-80
2023/08/27 03:27:59;;;;;;;76.32;70.65;;;;;;;;;;4985250;28;20289;-78
2023/08/27 03:30:25;;;;;;;137.52;128.63;;;;;;;;;;4998608;28;20229;-79
2023/08/27 03:32:52;;;;;;;88.22;81.20;;;;;;;;;;4980027;28;20235;-79
2023/08/27 03:35:19;;;;;;;79.05;72.65;;;;;;;;;;4988132;28;20664;-78
2023/08/27 03:37:45;;;;;;;50.03;41.53;;;;;;;;;;4995316;28;20248;-79
2023/08/27 03:40:12;;;;;;;51.00;45.83;;;;;;;;;;5002290;28;20235;-79
2023/08/27 03:42:38;;;;;;;76.85;41.40;;;;;;;;;;4999725;28;20224;-78
2023/08/27 03:45:05;;;;;;;56.38;51.00;;;;;;;;;;4999612;28;20290;-79
2023/08/27 03:47:32;;;;;;;103.05;84.88;;;;;;;;;;4985159;28;20228;-80
2023/08/27 03:49:58;;;;;;;86.88;80.30;;;;;;;;;;4994049;28;20327;-79
2023/08/27 03:52:25;;;;;;;44.38;19.58;;;;;;;;;;4996121;28;20231;-79
2023/08/27 03:54:51;;;;;;;45.05;21.73;;;;;;;;;;4991406;28;20588;-80
2023/08/27 03:57:18;;;;;;;45.55;22.25;;;;;;;;;;4996890;28;20240;-78
2023/08/27 03:59:44;;;;;;;82.90;48.83;;;;;;;;;;4992203;28;20248;-79
2023/08/27 04:02:11;;;;;;;69.90;63.97;;;;;;;;;;4996400;28;20239;-79
2023/08/27 04:04:38;;;;;;;92.18;64.95;;;;;;;;;;4985748;28;20246;-79
2023/08/27 04:07:05;;;;;;;88.90;81.78;;;;;;;;;;5000059;28;20317;-80
2023/08/27 04:09:32;;;;;;;89.05;57.55;;;;;;;;;;4994852;28;20242;-79
2023/08/27 04:11:58;;;;;;;70.43;46.38;;;;;;;;;;4997753;28;20226;-79
2023/08/27 04:14:25;;;;;;;59.58;50.92;;;;;;;;;;5007936;28;20230;-79
2023/08/27 04:16:51;;;;;;;59.13;53.10;;;;;;;;;;4995650;28;20235;-80
2023/08/27 04:19:18;;;;;;;39.38;34.25;;;;;;;;;;4993168;28;20254;-78
2023/08/27 04:21:44;;;;;;;89.07;72.47;;;;;;;;;;4988991;28;20222;-79
2023/08/27 04:24:11;;;;;;;56.83;51.13;;;;;;;;;;4998388;28;20224;-80
2023/08/27 04:26:39;;;;;;;83.35;57.40;;;;;;;;;;4989576;28;20227;-80
2023/08/27 04:29:06;;;;;;;57.75;52.33;;;;;;;;;;5002176;28;20285;-80
2023/08/27 04:31:32;;;;;;;93.32;79.43;;;;;;;;;;4985400;28;20227;-80
2023/08/27 04:33:59;;;;;;;123.00;114.78;;;;;;;;;;5000334;28;20232;-80
2023/08/27 04:36:26;;;;;;;69.28;62.70;;;;;;;;;;5008466;28;20247;-77
2023/08/27 04:38:52;;;;;;;60.58;51.90;;;;;;;;;;4995689;28;20244;-79
2023/08/27 04:41:19;;;;;;;98.10;90.05;;;;;;;;;;4996067;28;20239;-79
2023/08/27 04:43:45;;;;;;;24.83;10.63;;;;;;;;;;4914103;28;20241;-80
2023/08/27 04:46:12;;;;;;;48.28;16.77;;;;;;;;;;4998754;28;20228;-78
2023/08/27 04:48:39;;;;;;;83.50;30.92;;;;;;;;;;4991554;28;20235;-77
2023/08/27 04:51:06;;;;;;;39.28;14.25;;;;;;;;;;4996178;28;20235;-79
2023/08/27 04:53:32;;;;;;;81.72;36.78;;;;;;;;;;4978172;28;20240;-80
2023/08/27 04:55:59;;;;;;;44.80;39.95;;;;;;;;;;4996744;28;20284;-79
2023/08/27 04:58:26;;;;;;;50.47;39.88;;;;;;;;;;4999969;28;20232;-78
2023/08/27 05:00:53;;;;;;;77.03;71.53;;;;;;;;;;5003708;28;20235;-79
2023/08/27 05:03:25;;;;;;;107.75;99.95;;;;;;;;;;4979286;28;20236;-79
2023/08/27 05:05:52;;;;;;;128.05;119.63;;;;;;;;;;4993833;28;20235;-79
2023/08/27 05:08:19;;;;;;;149.05;138.07;;;;;;;;;;4994859;28;20227;-79
2023/08/27 05:10:46;;;;;;;258.45;244.15;;;;;;;;;;4995671;28;21182;-79
2023/08/27 05:13:12;;;;;;;103.55;94.85;;;;;;;;;;4984058;28;20231;-79
2023/08/27 05:15:39;;;;;;;78.63;45.35;;;;;;;;;;4999151;28;20251;-78
2023/08/27 05:18:06;;;;;;;48.53;33.70;;;;;;;;;;4982278;28;20255;-79
2023/08/27 05:20:32;;;;;;;80.70;41.22;;;;;;;;;;4912125;28;20753;-77
2023/08/27 05:22:59;;;;;;;58.95;47.70;;;;;;;;;;4989994;28;20236;-79
2023/08/27 05:25:26;;;;;;;78.20;71.53;;;;;;;;;;5000306;28;20698;-77
2023/08/27 05:27:52;;;;;;;52.33;32.08;;;;;;;;;;4987307;28;20255;-78
2023/08/27 05:30:19;;;;;;;44.53;31.08;;;;;;;;;;4978614;28;20247;-79
2023/08/27 05:32:45;;;;;;;52.72;21.45;;;;;;;;;;4991583;28;20296;-76
2023/08/27 05:35:12;;;;;;;52.13;34.95;;;;;;;;;;4999090;28;20231;-78
2023/08/27 05:37:39;;;;;;;81.47;50.38;;;;;;;;;;4992514;28;20248;-78
2023/08/27 05:40:06;;;;;;;74.38;67.75;;;;;;;;;;5004770;28;20274;-76
2023/08/27 05:42:33;;;;;;;84.18;57.92;;;;;;;;;;4995070;28;20223;-76
2023/08/27 05:44:59;;;;;;;38.63;24.90;;;;;;;;;;4993722;28;20235;-74
2023/08/27 05:47:29;;;;;;;45.10;20.60;;;;;;;;;;4982863;28;20228;-74
2023/08/27 05:49:55;;;;;;;46.45;26.10;;;;;;;;;;4998421;28;20595;-76
2023/08/27 05:52:22;;;;;;;53.58;35.20;;;;;;;;;;5001740;28;20324;-76
2023/08/27 05:54:48;;;;;;;66.13;60.50;;;;;;;;;;4993364;28;20242;-76
2023/08/27 05:57:15;;;;;;;80.80;73.88;;;;;;;;;;4999135;28;20242;-76
2023/08/27 05:59:41;;;;;;;100.88;91.03;;;;;;;;;;4999125;28;20223;-76
2023/08/27 06:02:10;;;;;;;87.95;80.35;;;;;;;;;;4987967;28;20231;-76
2023/08/27 06:04:36;;;;;;;85.20;62.63;;;;;;;;;;5007368;28;20211;-76
2023/08/27 06:07:03;;;;;;;86.85;79.65;;;;;;;;;;5002990;28;20230;-77
2023/08/27 06:09:29;;;;;;;100.55;85.43;;;;;;;;;;4966527;28;20244;-77
2023/08/27 06:11:58;;;;;;;95.90;87.88;;;;;;;;;;5000397;28;20231;-76
2023/08/27 06:14:25;;;;;;;130.93;121.70;;;;;;;;;;5002121;28;20236;-77
2023/08/27 06:16:51;;;;;;;103.78;93.47;;;;;;;;;;4995562;28;20254;-78
2023/08/27 06:19:18;;;;;;;100.78;93.68;;;;;;;;;;4998047;28;20323;-77
2023/08/27 06:21:45;;;;;;;94.28;84.32;;;;;;;;;;4987513;28;20698;-77
2023/08/27 06:24:12;;;;;;;57.30;46.95;;;;;;;;;;4987415;28;20231;-77
2023/08/27 06:26:38;;;;;;;74.68;28.58;;;;;;;;;;4987734;28;20231;-76
2023/08/27 06:29:05;;;;;;;33.83;16.25;;;;;;;;;;5009715;28;20236;-77
2023/08/27 06:31:32;;;;;;;162.98;149.27;;;;;;;;;;4989667;28;20234;-78
2023/08/27 06:33:59;;;;;;;107.55;99.82;;;;;;;;;;4999797;28;20228;-78
2023/08/27 06:36:25;;;;;;;78.85;72.35;;;;;;;;;;5001628;28;20567;-78
2023/08/27 06:38:52;;;;;;;63.47;20.92;;;;;;;;;;4986252;28;20242;-78
2023/08/27 06:41:18;;;;;;;41.35;14.00;;;;;;;;;;4967212;28;20226;-76
2023/08/27 06:43:45;;;;;;;72.95;17.75;;;;;;;;;;4934573;28;20240;-82
2023/08/27 06:46:12;;;;;;;51.60;19.30;;;;;;;;;;4967277;28;20255;-82
2023/08/27 06:48:39;;;;;;;72.63;30.38;;;;;;;;;;4988543;28;20232;-82
2023/08/27 06:51:05;;;;;;;41.50;23.88;;;;;;;;;;5009432;28;20231;-82
2023/08/27 06:53:32;;;;;;;94.07;32.05;;;;;;;;;;4987528;28;20236;-81
2023/08/27 06:55:58;;;;;;;59.60;22.30;;;;;;;;;;4992693;28;20254;-81
2023/08/27 06:58:25;;;;;;;73.38;20.55;;;;;;;;;;4993186;28;20250;-81
2023/08/27 07:00:52;;;;;;;42.75;15.70;;;;;;;;;;4994355;28;20232;-80
2023/08/27 07:03:19;;;;;;;43.30;13.80;;;;;;;;;;4984583;28;20303;-81
2023/08/27 07:05:46;;;;;;;42.58;13.30;;;;;;;;;;4972830;28;22892;-80
2023/08/27 07:08:13;;;;;;;42.50;19.15;;;;;;;;;;4985634;28;20330;-81
2023/08/27 07:10:39;;;;;;;76.55;32.92;;;;;;;;;;4994278;28;20231;-79
2023/08/27 07:13:06;;;;;;;37.35;19.13;;;;;;;;;;5007785;28;20240;-80
2023/08/27 07:15:32;;;;;;;78.75;20.90;;;;;;;;;;4970057;28;20238;-81
2023/08/27 07:17:59;;;;;;;39.00;19.02;;;;;;;;;;4985960;28;20247;-81
2023/08/27 07:20:26;;;;;;;99.28;55.42;;;;;;;;;;4955573;28;20232;-78
2023/08/27 07:22:52;;;;;;;238.48;225.57;;;;;;;;;;4996227;28;20227;-80
2023/08/27 07:25:21;;;;;;;119.78;111.75;;;;;;;;;;4995790;28;20267;-82
2023/08/27 07:27:47;;;;;;;64.15;58.05;;;;;;;;;;4991815;28;20231;-77
2023/08/27 07:30:14;;;;;;;41.00;27.40;;;;;;;;;;5000148;28;20749;-79
2023/08/27 07:32:41;;;;;;;73.97;25.52;;;;;;;;;;4993530;28;20270;-79
2023/08/27 07:35:07;;;;;;;58.55;53.88;;;;;;;;;;5002718;28;20266;-78
2023/08/27 07:37:34;;;;;;;130.43;117.70;;;;;;;;;;4978340;28;20237;-77
2023/08/27 07:40:03;;;;;;;156.75;147.13;;;;;;;;;;4973020;28;20235;-78
2023/08/27 07:42:30;;;;;;;104.50;94.40;;;;;;;;;;4994258;28;20318;-79
2023/08/27 07:44:56;;;;;;;73.47;66.82;;;;;;;;;;4998841;28;20240;-78
2023/08/27 07:47:23;;;;;;;116.78;107.93;;;;;;;;;;4999369;28;20236;-78
2023/08/27 07:49:50;;;;;;;83.18;76.35;;;;;;;;;;4978023;28;20239;-77
2023/08/27 07:52:16;;;;;;;145.40;136.32;;;;;;;;;;5006672;28;20283;-78
2023/08/27 07:54:43;;;;;;;93.35;52.47;;;;;;;;;;5003191;28;20258;-80
2023/08/27 07:57:10;;;;;;;61.63;47.20;;;;;;;;;;4995786;28;20235;-79
2023/08/27 07:59:37;;;;;;;106.25;95.10;;;;;;;;;;4978262;28;20298;-78
2023/08/27 08:02:03;;;;;;;76.72;68.07;;;;;;;;;;5006821;28;20234;-80
2023/08/27 08:04:30;;;;;;;85.93;64.45;;;;;;;;;;4992861;28;20320;-80
2023/08/27 08:06:57;;;;;;;54.20;30.08;;;;;;;;;;4993012;28;20263;-85
2023/08/27 08:09:24;;;;;;;47.63;22.77;;;;;;;;;;4998334;28;20235;-82
2023/08/27 08:11:51;;;;;;;48.08;28.55;;;;;;;;;;4996866;28;20242;-84
2023/08/27 08:14:17;;;;;;;44.90;33.42;;;;;;;;;;5003105;28;20289;-84
2023/08/27 08:16:44;;;;;;;68.90;32.42;;;;;;;;;;4994442;28;20236;-85
2023/08/27 08:19:11;;;;;;;86.63;79.93;;;;;;;;;;5002477;28;20235;-84
2023/08/27 08:21:38;;;;;;;73.07;45.33;;;;;;;;;;4998586;28;20290;-84
2023/08/27 08:24:05;;;;;;;183.70;172.57;;;;;;;;;;5006799;28;20223;-82
2023/08/27 08:26:31;;;;;;;140.75;128.65;;;;;;;;;;4995120;28;20231;-84
2023/08/27 08:28:58;;;;;;;112.45;104.32;;;;;;;;;;4989737;28;20286;-83
2023/08/27 08:31:25;;;;;;;138.50;128.93;;;;;;;;;;4996212;28;20235;-84
2023/08/27 08:33:51;;;;;;;95.82;88.18;;;;;;;;;;4948514;28;20223;-84
2023/08/27 08:36:18;;;;;;;86.07;78.30;;;;;;;;;;4992920;28;20232;-84
2023/08/27 08:38:45;;;;;;;97.72;16.38;;;;;;;;;;4984934;28;20228;-84
2023/08/27 08:41:14;;;;;;;38.17;7.43;;;;;;;;;;4995408;28;20228;-83
2023/08/27 08:43:47;;;;;;;96.35;17.15;;;;;;;;;;4985205;28;20228;-84
2023/08/27 08:46:17;;;;;;;42.65;8.45;;;;;;;;;;4990655;28;20235;-83
2023/08/27 08:48:47;;;;;;;112.40;20.13;;;;;;;;;;4983199;28;20240;-83
2023/08/27 08:51:14;;;;;;;33.30;6.47;;;;;;;;;;4992235;28;20227;-83
2023/08/27 08:53:42;;;;;;;128.60;22.95;;;;;;;;;;4986390;28;20246;-83
2023/08/27 08:56:15;;;;;;;44.05;8.77;;;;;;;;;;4993845;28;20228;-83
2023/08/27 08:58:44;;;;;;;110.22;18.80;;;;;;;;;;4989266;28;20247;-83
2023/08/27 09:01:13;;;;;;;36.20;7.25;;;;;;;;;;4993490;28;20230;-84
2023/08/27 09:03:40;;;;;;;112.75;18.40;;;;;;;;;;4982960;28;20231;-85
2023/08/27 09:06:06;;;;;;;34.88;7.28;;;;;;;;;;4994278;28;20231;-84
2023/08/27 09:08:35;;;;;;;129.80;29.02;;;;;;;;;;4985455;28;20243;-84
2023/08/27 09:11:01;;;;;;;72.10;66.10;;;;;;;;;;5003560;28;20599;-84
2023/08/27 09:13:28;;;;;;;216.02;199.18;;;;;;;;;;4995855;28;20245;-83
2023/08/27 09:15:55;;;;;;;78.07;70.28;;;;;;;;;;4984638;28;20239;-84
2023/08/27 09:18:22;;;;;;;288.40;270.02;;;;;;;;;;4994883;28;20235;-82
2023/08/27 09:20:50;;;;;;;63.58;15.30;;;;;;;;;;4965130;28;20244;-80
2023/08/27 09:23:17;;;;;;;146.07;135.27;;;;;;;;;;5010764;28;20252;-80
2023/08/27 09:25:44;;;;;;;102.10;43.05;;;;;;;;;;4996396;28;20237;-82
2023/08/27 09:28:11;;;;;;;153.50;141.18;;;;;;;;;;5003869;28;20233;-80
2023/08/27 09:30:37;;;;;;;90.88;40.00;;;;;;;;;;4952925;28;20742;-81
2023/08/27 09:33:04;;;;;;;190.57;175.35;;;;;;;;;;4994322;28;20237;-81
2023/08/27 09:35:38;;;;;;;102.75;91.03;;;;;;;;;;4938163;28;20295;-80
2023/08/27 09:38:05;;;;;;;232.40;217.40;;;;;;;;;;4962127;28;20673;-80
2023/08/27 09:40:32;;;;;;;218.50;200.10;;;;;;;;;;4937704;28;20245;-81
2023/08/27 09:43:05;;;;;;;239.77;224.25;;;;;;;;;;4890750;28;20236;-83
2023/08/27 09:45:33;;;;;;;156.95;140.80;;;;;;;;;;4948898;28;20248;-82
2023/08/27 09:48:00;;;;;;;155.77;144.30;;;;;;;;;;4972007;28;20238;-82
2023/08/27 09:50:29;;;;;;;126.88;115.68;;;;;;;;;;4941578;28;20716;-83
2023/08/27 09:53:05;;;;;;;108.25;98.80;;;;;;;;;;4992061;28;20241;-83
2023/08/27 09:55:33;;;;;;;144.18;130.05;;;;;;;;;;4951230;28;20237;-83
2023/08/27 09:58:01;;;;;;;98.85;86.05;;;;;;;;;;4963709;28;20239;-79
2023/08/27 10:00:31;;;;;;;109.20;100.60;;;;;;;;;;4953724;28;20251;-83
2023/08/27 10:02:57;;;;;;;58.25;51.33;;;;;;;;;;4929111;28;20239;-82
2023/08/27 10:05:28;;;;;;;218.07;204.13;;;;;;;;;;4972405;28;20238;-82
2023/08/27 10:07:59;;;;;;;188.82;176.13;;;;;;;;;;4956609;28;20281;-82
2023/08/27 10:10:27;;;;;;;274.65;256.88;;;;;;;;;;4978042;28;20259;-78
2023/08/27 10:12:55;;;;;;;177.75;164.35;;;;;;;;;;4947509;28;20258;-82
2023/08/27 10:15:22;;;;;;;223.50;208.82;;;;;;;;;;4959175;28;20246;-78
2023/08/27 10:17:50;;;;;;;190.57;175.57;;;;;;;;;;4913057;28;20386;-79
2023/08/27 10:20:16;;;;;;;216.85;201.07;;;;;;;;;;4944264;28;20325;-82
2023/08/27 10:22:44;;;;;;;148.88;133.15;;;;;;;;;;4902934;28;20240;-81
2023/08/27 10:25:12;;;;;;;185.68;172.57;;;;;;;;;;4934956;28;20232;-83
2023/08/27 10:27:39;;;;;;;139.93;70.38;;;;;;;;;;4976128;28;20726;-82
2023/08/27 10:30:07;;;;;;;42.58;23.20;;;;;;;;;;4950336;28;20650;-79
2023/08/27 10:32:35;;;;;;;197.68;176.48;;;;;;;;;;4955671;28;20231;-79
2023/08/27 10:35:05;;;;;;;57.85;13.82;;;;;;;;;;4978165;28;20234;-80
2023/08/27 10:37:33;;;;;;;172.63;157.70;;;;;;;;;;4869912;28;20264;-78
2023/08/27 10:40:00;;;;;;;259.90;241.88;;;;;;;;;;4883422;28;20236;-79
2023/08/27 10:42:32;;;;;;;194.18;179.57;;;;;;;;;;4933883;28;20247;-79
2023/08/27 10:45:19;;;;;;;168.02;155.82;;;;;;;;;;5000211;28;20237;-80
2023/08/27 10:48:04;;;;;;;148.63;134.32;;;;;;;;;;5001000;28;20233;-77
2023/08/27 10:50:51;;;;;;;211.93;195.38;;;;;;;;;;4992858;28;20338;-80
2023/08/27 10:53:18;;;;;;;247.55;232.25;;;;;;;;;;5004889;28;20222;-80
2023/08/27 10:55:50;;;;;;;82.97;15.20;;;;;;;;;;5001626;28;20231;-81
2023/08/27 10:58:21;;;;;;;81.32;42.50;;;;;;;;;;5005666;28;20265;-80
2023/08/27 11:01:06;;;;;;;77.15;47.95;;;;;;;;;;4993920;28;20244;-78
2023/08/27 11:03:59;;;;;;;124.80;93.60;;;;;;;;;;5001389;28;20293;-79
2023/08/27 11:06:46;;;;;;;33.30;6.22;;;;;;;;;;4997080;28;20706;-77
2023/08/27 11:09:18;;;;;;;29.27;5.93;;;;;;;;;;5000118;28;20243;-78
2023/08/27 11:11:53;;;;;;;117.35;108.05;;;;;;;;;;4994693;28;20285;-79
2023/08/27 11:14:21;;;;;;;176.80;164.75;;;;;;;;;;5004037;28;20230;-79
2023/08/27 11:16:54;;;;;;;214.32;199.77;;;;;;;;;;5000584;28;20311;-78
2023/08/27 11:19:25;;;;;;;170.88;158.68;;;;;;;;;;4993879;28;20242;-79
2023/08/27 11:22:04;;;;;;;152.40;141.48;;;;;;;;;;4993393;28;20679;-79
2023/08/27 11:24:31;;;;;;;77.75;53.05;;;;;;;;;;4992941;28;20246;-79
2023/08/27 11:26:59;;;;;;;172.63;160.70;;;;;;;;;;4998690;28;20297;-79
2023/08/27 11:29:27;;;;;;;201.05;187.40;;;;;;;;;;5000829;28;20235;-79
2023/08/27 11:31:54;;;;;;;120.75;111.78;;;;;;;;;;4990482;28;20235;-79
2023/08/27 11:34:21;;;;;;;116.88;107.95;;;;;;;;;;4998888;28;20230;-78
2023/08/27 11:36:48;;;;;;;132.90;123.80;;;;;;;;;;4991186;28;20238;-79
2023/08/27 11:39:18;;;;;;;102.75;94.72;;;;;;;;;;4997693;28;20566;-79
2023/08/27 11:41:45;;;;;;;110.78;99.28;;;;;;;;;;4996324;28;20258;-80
2023/08/27 11:44:11;;;;;;;177.73;166.55;;;;;;;;;;4998555;28;20235;-79
2023/08/27 11:46:39;;;;;;;112.82;85.57;;;;;;;;;;4996606;28;20239;-78
2023/08/27 11:49:06;;;;;;;170.00;157.40;;;;;;;;;;4984793;28;20230;-79
2023/08/27 11:51:33;;;;;;;221.52;202.57;;;;;;;;;;4993305;28;20788;-79
2023/08/27 11:54:00;;;;;;;120.72;112.28;;;;;;;;;;4973554;28;20238;-79
2023/08/27 11:56:28;;;;;;;43.35;30.13;;;;;;;;;;5003057;28;20233;-79
2023/08/27 11:58:55;;;;;;;29.05;6.03;;;;;;;;;;5000893;28;20234;-80
2023/08/27 12:01:22;;;;;;;25.80;6.60;;;;;;;;;;5000791;28;20242;-79
2023/08/27 12:03:49;;;;;;;30.10;11.05;;;;;;;;;;4997105;28;20230;-79
2023/08/27 12:06:17;;;;;;;47.95;18.55;;;;;;;;;;5005264;28;20234;-80
2023/08/27 12:08:47;;;;;;;89.88;21.10;;;;;;;;;;4990875;28;20310;-80
2023/08/27 12:11:14;;;;;;;25.73;5.15;;;;;;;;;;4999348;28;20350;-80
2023/08/27 12:13:42;;;;;;;92.63;18.90;;;;;;;;;;4973080;28;20234;-78
2023/08/27 12:16:09;;;;;;;25.45;5.20;;;;;;;;;;4963511;28;20255;-79
2023/08/27 12:18:46;;;;;;;117.72;22.30;;;;;;;;;;4987068;28;20326;-80
2023/08/27 12:21:13;;;;;;;29.45;6.20;;;;;;;;;;5000624;28;20219;-79
2023/08/27 12:23:49;;;;;;;83.13;14.23;;;;;;;;;;4956677;28;20719;-79
2023/08/27 12:26:15;;;;;;;32.15;6.82;;;;;;;;;;4977663;28;20227;-79
2023/08/27 12:28:49;;;;;;;73.53;17.50;;;;;;;;;;4961732;28;20285;-79
2023/08/27 12:31:20;;;;;;;25.58;5.38;;;;;;;;;;4999024;28;20235;-80
2023/08/27 12:33:47;;;;;;;27.83;7.57;;;;;;;;;;4987130;28;20679;-79
2023/08/27 12:36:14;;;;;;;357.98;336.75;;;;;;;;;;4997050;28;20238;-79
2023/08/27 12:38:40;;;;;;;243.70;222.20;;;;;;;;;;4985269;28;20231;-81
2023/08/27 12:41:07;;;;;;;291.25;273.23;;;;;;;;;;4976184;28;20238;-78
2023/08/27 12:43:33;;;;;;;195.95;177.45;;;;;;;;;;4982545;28;20235;-79
2023/08/27 12:46:00;;;;;;;197.90;178.45;;;;;;;;;;4982383;28;20227;-80
2023/08/27 12:48:26;;;;;;;274.60;257.08;;;;;;;;;;4979976;28;20270;-80
2023/08/27 12:50:54;;;;;;;271.33;253.77;;;;;;;;;;4976385;28;20251;-81
2023/08/27 12:53:22;;;;;;;265.30;248.10;;;;;;;;;;4981731;28;20227;-81
2023/08/27 12:55:49;;;;;;;253.02;235.13;;;;;;;;;;4985685;28;20239;-81
2023/08/27 12:58:15;;;;;;;236.88;221.55;;;;;;;;;;4995520;28;20227;-80
2023/08/27 13:00:42;;;;;;;196.52;179.45;;;;;;;;;;4986954;28;20235;-81
2023/08/27 13:03:08;;;;;;;186.23;172.77;;;;;;;;;;5000532;28;20277;-80
2023/08/27 13:05:35;;;;;;;197.57;181.35;;;;;;;;;;4993323;28;20230;-81
2023/08/27 13:08:02;;;;;;;209.23;195.05;;;;;;;;;;4992843;28;20245;-82
2023/08/27 13:10:29;;;;;;;253.48;237.43;;;;;;;;;;4967805;28;20251;-82
2023/08/27 13:12:55;;;;;;;196.60;179.82;;;;;;;;;;4980958;28;20239;-81
2023/08/27 13:15:22;;;;;;;289.83;271.55;;;;;;;;;;5000092;28;20234;-81
2023/08/27 13:17:49;;;;;;;251.85;235.05;;;;;;;;;;4988909;28;20244;-81
2023/08/27 13:20:16;;;;;;;209.07;193.73;;;;;;;;;;4988662;28;20314;-80
2023/08/27 13:22:42;;;;;;;130.15;23.40;;;;;;;;;;4959677;28;20239;-80
2023/08/27 13:25:11;;;;;;;56.88;12.27;;;;;;;;;;4906137;28;20234;-80
2023/08/27 13:27:38;;;;;;;231.65;211.55;;;;;;;;;;4954212;28;20238;-80
2023/08/27 13:30:05;;;;;;;266.33;247.07;;;;;;;;;;4974783;28;20246;-80
2023/08/27 13:32:32;;;;;;;252.15;230.73;;;;;;;;;;4983730;28;20240;-80
2023/08/27 13:34:58;;;;;;;211.82;197.40;;;;;;;;;;4992228;28;20254;-81
2023/08/27 13:37:25;;;;;;;212.65;198.05;;;;;;;;;;4988856;28;20254;-78
2023/08/27 13:39:51;;;;;;;46.05;34.45;;;;;;;;;;4984082;28;20239;-81
2023/08/27 13:42:18;;;;;;;403.75;378.13;;;;;;;;;;4976409;28;20233;-80
2023/08/27 13:44:45;;;;;;;447.52;417.77;;;;;;;;;;4971549;28;20238;-80
2023/08/27 13:47:11;;;;;;;453.75;425.35;;;;;;;;;;4994093;28;20246;-81
2023/08/27 13:49:38;;;;;;;401.73;370.80;;;;;;;;;;4968719;28;20238;-79
2023/08/27 13:52:05;;;;;;;474.17;445.33;;;;;;;;;;4986947;28;20309;-80
2023/08/27 13:54:31;;;;;;;520.42;487.98;;;;;;;;;;4988816;28;20238;-79
2023/08/27 13:56:58;;;;;;;469.13;441.58;;;;;;;;;;5000486;28;20235;-80
2023/08/27 13:59:26;;;;;;;576.15;543.55;;;;;;;;;;4996802;28;20239;-81
2023/08/27 14:01:52;;;;;;;713.38;671.38;;;;;;;;;;4995558;28;20231;-80
2023/08/27 14:04:19;;;;;;;634.08;595.75;;;;;;;;;;4984967;28;20241;-80
2023/08/27 14:06:46;;;;;;;612.30;574.28;;;;;;;;;;4989841;28;20226;-79
2023/08/27 14:09:13;;;;;;;508.88;480.05;;;;;;;;;;5002551;28;20686;-79
2023/08/27 14:11:39;;;;;;;495.83;464.15;;;;;;;;;;5004120;28;20256;-78